createdAt,value
2017-08-24T00:01:54.649Z,1.90
2017-08-24T00:04:23.042Z,2.93
2017-08-24T00:06:51.422Z,1.63
2017-08-24T00:09:19.808Z,3.40
2017-08-24T00:11:48.177Z,1.97
2017-08-24T00:14:16.570Z,4.87
2017-08-24T00:16:46.909Z,2.27
2017-08-24T00:19:19.716Z,3.13
2017-08-24T00:21:48.096Z,2.97
2017-08-24T00:24:17.472Z,1.80
2017-08-24T00:26:49.017Z,3.23
2017-08-24T00:29:19.849Z,2.07
2017-08-24T00:31:50.511Z,2.33
2017-08-24T00:34:19.796Z,6.17
2017-08-24T00:36:54.714Z,4.57
2017-08-24T00:39:29.632Z,4.33
2017-08-24T00:41:58.008Z,6.67
2017-08-24T00:44:26.485Z,5.60
2017-08-24T00:47:01.005Z,3.73
2017-08-24T00:49:36.028Z,2.87
2017-08-24T00:52:06.419Z,4.47
2017-08-24T00:54:37.105Z,5.00
2017-08-24T00:57:05.590Z,2.60
2017-08-24T00:59:34.865Z,2.70
2017-08-24T01:02:04.220Z,3.60
2017-08-24T01:04:32.632Z,1.83
2017-08-24T01:07:05.533Z,4.20
2017-08-24T01:09:33.904Z,1.90
2017-08-24T01:12:04.643Z,8.10
2017-08-24T01:14:33.000Z,2.60
2017-08-24T01:17:03.979Z,2.00
2017-08-24T01:19:32.363Z,2.83
2017-08-24T01:22:00.721Z,2.77
2017-08-24T01:24:29.097Z,1.63
2017-08-24T01:26:57.524Z,4.30
2017-08-24T01:29:25.900Z,2.50
2017-08-24T01:31:57.005Z,3.43
2017-08-24T01:34:25.386Z,17.97
2017-08-24T01:36:56.946Z,9.37
2017-08-24T01:39:25.339Z,2.87
2017-08-24T01:41:55.237Z,3.07
2017-08-24T01:44:23.614Z,2.90
2017-08-24T01:46:56.090Z,2.53
2017-08-24T01:49:24.481Z,3.77
2017-08-24T01:51:52.847Z,1.80
2017-08-24T01:54:21.223Z,1.83
2017-08-24T01:56:51.820Z,1.30
2017-08-24T01:59:26.375Z,2.53
2017-08-24T02:01:57.078Z,4.30
2017-08-24T02:04:32.197Z,6.20
2017-08-24T02:07:04.957Z,2.97
2017-08-24T02:09:35.566Z,1.80
2017-08-24T02:12:06.125Z,7.23
2017-08-24T02:14:34.550Z,3.53
2017-08-24T02:17:11.786Z,2.43
2017-08-24T02:19:47.640Z,2.37
2017-08-24T02:22:18.018Z,3.73
2017-08-24T02:24:46.423Z,2.20
2017-08-24T02:27:15.820Z,4.17
2017-08-24T02:29:46.296Z,1.80
2017-08-24T02:32:19.010Z,1.70
2017-08-24T02:34:49.654Z,2.27
2017-08-24T02:37:24.982Z,4.20
2017-08-24T02:39:56.648Z,3.53
2017-08-24T02:42:29.507Z,2.80
2017-08-24T02:45:02.232Z,3.40
2017-08-24T02:47:30.665Z,2.27
2017-08-24T02:50:06.461Z,3.67
2017-08-24T02:52:35.951Z,2.00
2017-08-24T02:55:06.623Z,1.50
2017-08-24T02:57:39.661Z,1.60
2017-08-24T03:00:10.312Z,3.03
2017-08-24T03:02:38.884Z,1.90
2017-08-24T03:05:07.369Z,1.90
2017-08-24T03:07:36.609Z,1.60
2017-08-24T03:10:05.597Z,2.60
2017-08-24T03:12:34.952Z,1.50
2017-08-24T03:15:03.442Z,1.83
2017-08-24T03:17:31.911Z,4.77
2017-08-24T03:20:00.286Z,1.60
2017-08-24T03:22:28.679Z,4.80
2017-08-24T03:24:57.159Z,5.77
2017-08-24T03:27:25.551Z,2.30
2017-08-24T03:29:53.952Z,2.30
2017-08-24T03:32:23.314Z,5.10
2017-08-24T03:34:51.785Z,2.97
2017-08-24T03:37:20.163Z,1.93
2017-08-24T03:39:48.542Z,2.60
2017-08-24T03:42:16.933Z,2.07
2017-08-24T03:44:45.321Z,3.73
2017-08-24T03:47:13.690Z,2.10
2017-08-24T03:49:42.092Z,3.97
2017-08-24T03:52:10.476Z,1.33
2017-08-24T03:54:39.018Z,4.63
2017-08-24T03:57:08.328Z,2.70
2017-08-24T03:59:36.724Z,1.97
2017-08-24T04:02:05.109Z,2.57
2017-08-24T04:04:33.495Z,2.53
2017-08-24T04:07:01.859Z,10.00
2017-08-24T04:09:30.316Z,2.50
2017-08-24T04:11:58.690Z,1.70
2017-08-24T04:14:27.081Z,9.33
2017-08-24T04:16:55.458Z,2.77
2017-08-24T04:19:23.899Z,6.27
2017-08-24T04:21:53.223Z,2.20
2017-08-24T04:24:21.645Z,2.80
2017-08-24T04:26:50.033Z,3.93
2017-08-24T04:29:18.417Z,2.07
2017-08-24T04:31:46.797Z,2.37
2017-08-24T04:34:15.182Z,3.33
2017-08-24T04:36:43.553Z,2.60
2017-08-24T04:39:11.942Z,2.73
2017-08-24T04:41:40.312Z,5.80
2017-08-24T04:44:08.709Z,2.80
2017-08-24T04:46:37.062Z,2.50
2017-08-24T04:49:05.461Z,2.87
2017-08-24T04:51:33.832Z,2.20
2017-08-24T04:54:02.229Z,2.70
2017-08-24T04:56:30.627Z,5.77
2017-08-24T04:58:59.044Z,6.43
2017-08-24T05:01:27.435Z,2.70
2017-08-24T05:03:55.865Z,4.40
2017-08-24T05:06:24.230Z,3.73
2017-08-24T05:08:52.591Z,4.83
2017-08-24T05:11:20.976Z,4.00
2017-08-24T05:13:49.340Z,2.57
2017-08-24T05:16:18.791Z,2.60
2017-08-24T05:18:48.155Z,4.13
2017-08-24T05:21:16.529Z,3.57
2017-08-24T05:23:45.882Z,4.57
2017-08-24T05:26:14.306Z,3.20
2017-08-24T05:28:42.733Z,4.03
2017-08-24T05:31:11.124Z,3.50
2017-08-24T05:33:39.499Z,5.10
2017-08-24T05:36:07.964Z,2.97
2017-08-24T05:38:38.267Z,2.27
2017-08-24T05:41:07.605Z,3.10
2017-08-24T05:43:35.968Z,4.10
2017-08-24T05:46:04.363Z,4.00
2017-08-24T05:48:32.826Z,6.13
2017-08-24T05:51:01.294Z,4.53
2017-08-24T05:53:29.664Z,4.73
2017-08-24T05:55:58.040Z,4.73
2017-08-24T05:58:26.432Z,4.40
2017-08-24T06:00:55.831Z,3.70
2017-08-24T06:03:25.177Z,5.20
2017-08-24T06:05:53.553Z,7.60
2017-08-24T06:08:21.952Z,4.90
2017-08-24T06:10:50.331Z,6.63
2017-08-24T06:13:18.749Z,5.23
2017-08-24T06:15:48.066Z,4.37
2017-08-24T06:18:17.192Z,4.17
2017-08-24T06:20:45.578Z,5.40
2017-08-24T06:23:13.989Z,4.50
2017-08-24T06:25:42.376Z,4.50
2017-08-24T06:28:10.774Z,5.83
2017-08-24T06:30:39.155Z,4.00
2017-08-24T06:33:07.550Z,6.57
2017-08-24T06:35:35.928Z,4.17
2017-08-24T06:38:05.332Z,3.73
2017-08-24T06:40:33.727Z,4.70
2017-08-24T06:43:03.106Z,5.03
2017-08-24T06:45:31.489Z,5.57
2017-08-24T06:47:59.885Z,6.07
2017-08-24T06:50:29.238Z,11.33
2017-08-24T06:52:57.730Z,5.20
2017-08-24T06:55:26.216Z,5.43
2017-08-24T06:57:54.682Z,5.27
2017-08-24T07:00:23.062Z,7.37
2017-08-24T07:02:51.461Z,6.40
2017-08-24T07:05:19.921Z,4.60
2017-08-24T07:07:48.400Z,7.30
2017-08-24T07:10:16.791Z,5.40
2017-08-24T07:12:45.181Z,4.10
2017-08-24T07:15:13.634Z,4.40
2017-08-24T07:17:42.934Z,8.30
2017-08-24T07:20:11.327Z,5.00
2017-08-24T07:22:39.692Z,5.43
2017-08-24T07:25:08.067Z,5.37
2017-08-24T07:27:36.455Z,6.30
2017-08-24T07:30:04.820Z,5.60
2017-08-24T07:32:33.416Z,6.93
2017-08-24T07:35:01.779Z,6.57
2017-08-24T07:37:30.171Z,5.10
2017-08-24T07:39:59.570Z,6.77
2017-08-24T07:42:27.963Z,4.97
2017-08-24T07:44:56.325Z,5.33
2017-08-24T07:47:24.808Z,9.40
2017-08-24T07:49:53.181Z,5.37
2017-08-24T07:52:21.677Z,7.03
2017-08-24T07:54:50.041Z,11.50
2017-08-24T07:57:18.418Z,5.43
2017-08-24T07:59:46.904Z,5.50
2017-08-24T08:02:16.200Z,6.90
2017-08-24T08:04:44.593Z,5.20
2017-08-24T08:07:13.053Z,7.63
2017-08-24T08:09:41.441Z,6.80
2017-08-24T08:12:09.821Z,5.57
2017-08-24T08:14:38.194Z,8.90
2017-08-24T08:17:06.562Z,5.13
2017-08-24T08:19:35.993Z,12.10
2017-08-24T08:22:05.273Z,9.10
2017-08-24T08:24:35.649Z,8.40
2017-08-24T08:27:04.033Z,8.93
2017-08-24T08:29:32.456Z,6.93
2017-08-24T08:32:01.753Z,8.77
2017-08-24T08:34:30.128Z,7.53
2017-08-24T08:36:58.546Z,7.90
2017-08-24T08:39:26.926Z,7.40
2017-08-24T08:41:55.586Z,9.70
2017-08-24T08:44:23.957Z,7.70
2017-08-24T08:46:52.328Z,8.70
2017-08-24T08:49:21.662Z,9.50
2017-08-24T08:51:51.987Z,12.23
2017-08-24T08:54:20.431Z,8.90
2017-08-24T08:56:49.788Z,12.20
2017-08-24T08:59:20.253Z,10.13
2017-08-24T09:01:49.587Z,12.80
2017-08-24T09:04:18.985Z,11.60
2017-08-24T09:06:47.381Z,10.20
2017-08-24T09:09:21.061Z,9.57
2017-08-24T09:11:49.530Z,11.90
2017-08-24T09:14:18.942Z,12.33
2017-08-24T09:16:47.354Z,11.07
2017-08-24T09:19:17.770Z,21.33
2017-08-24T09:21:46.176Z,16.13
2017-08-24T09:24:15.472Z,13.80
2017-08-24T09:26:46.938Z,11.37
2017-08-24T09:29:17.266Z,12.40
2017-08-24T09:31:46.588Z,11.63
2017-08-24T09:34:19.193Z,14.27
2017-08-24T09:36:48.179Z,12.97
2017-08-24T09:39:19.965Z,14.63
2017-08-24T09:41:48.327Z,11.00
2017-08-24T09:44:16.730Z,12.90
2017-08-24T09:46:45.128Z,13.60
2017-08-24T09:49:13.512Z,14.63
2017-08-24T09:51:42.852Z,16.93
2017-08-24T09:54:11.219Z,15.40
2017-08-24T09:56:39.672Z,16.80
2017-08-24T09:59:09.017Z,16.73
2017-08-24T10:01:38.400Z,18.30
2017-08-24T10:04:06.821Z,15.00
2017-08-24T10:06:39.351Z,20.00
2017-08-24T10:09:07.764Z,20.17
2017-08-24T10:11:37.127Z,30.17
2017-08-24T10:14:08.718Z,35.07
2017-08-24T10:16:37.766Z,26.33
2017-08-24T10:19:06.169Z,27.92
2017-08-24T10:21:39.965Z,35.63
2017-08-24T10:24:09.365Z,34.60
2017-08-24T10:26:41.372Z,32.20
2017-08-24T10:29:09.857Z,34.00
2017-08-24T10:31:43.258Z,35.40
2017-08-24T10:34:11.621Z,34.23
2017-08-24T10:36:41.194Z,36.73
2017-08-24T10:39:09.574Z,34.33
2017-08-24T10:41:38.049Z,32.30
2017-08-24T10:44:06.466Z,41.10
2017-08-24T10:46:34.908Z,33.37
2017-08-24T10:49:06.708Z,33.60
2017-08-24T10:51:35.145Z,26.00
2017-08-24T10:54:03.537Z,29.33
2017-08-24T10:56:31.937Z,29.80
2017-08-24T10:59:00.425Z,35.73
2017-08-24T11:01:29.836Z,30.80
2017-08-24T11:03:58.220Z,28.10
2017-08-24T11:06:26.653Z,24.63
2017-08-24T11:08:55.041Z,33.13
2017-08-24T11:11:23.496Z,27.60
2017-08-24T11:13:51.881Z,23.63
2017-08-24T11:16:20.401Z,24.23
2017-08-24T11:18:48.847Z,19.60
2017-08-24T11:21:18.145Z,22.60
2017-08-24T11:23:46.565Z,18.43
2017-08-24T11:26:16.936Z,9.30
2017-08-24T11:28:45.541Z,6.10
2017-08-24T11:31:15.951Z,4.80
2017-08-24T11:33:45.357Z,8.23
2017-08-24T11:36:16.832Z,4.30
2017-08-24T11:38:47.502Z,3.90
2017-08-24T11:41:18.081Z,5.53
2017-08-24T11:43:48.483Z,4.80
2017-08-24T11:46:21.927Z,5.67
2017-08-24T11:48:50.757Z,7.83
2017-08-24T11:51:24.384Z,2.77
2017-08-24T11:53:57.692Z,3.97
2017-08-24T11:56:26.218Z,2.60
2017-08-24T11:59:04.078Z,6.67
2017-08-24T12:01:33.601Z,6.67
2017-08-24T12:04:02.110Z,4.03
2017-08-24T12:06:35.848Z,6.20
2017-08-24T12:09:10.793Z,2.80
2017-08-24T12:11:48.599Z,3.33
2017-08-24T12:14:19.309Z,2.70
2017-08-24T12:16:49.936Z,3.23
2017-08-24T12:19:22.518Z,3.53
2017-08-24T12:21:56.525Z,8.90
2017-08-24T12:24:24.897Z,6.43
2017-08-24T12:26:53.285Z,2.43
2017-08-24T12:29:26.121Z,3.23
2017-08-24T12:31:58.732Z,3.90
2017-08-24T12:34:34.899Z,3.27
2017-08-24T12:37:05.656Z,2.60
2017-08-24T12:39:38.393Z,2.23
2017-08-24T12:42:08.840Z,4.83
2017-08-24T12:44:39.290Z,2.40
2017-08-24T12:47:14.506Z,11.23
2017-08-24T12:49:42.945Z,3.67
2017-08-24T12:52:13.258Z,2.73
2017-08-24T12:54:44.656Z,8.73
2017-08-24T12:57:17.460Z,8.30
2017-08-24T12:59:48.092Z,6.00
2017-08-24T13:02:18.461Z,2.97
2017-08-24T13:04:54.431Z,5.30
2017-08-24T13:07:28.889Z,6.73
2017-08-24T13:10:03.532Z,7.97
2017-08-24T13:12:40.913Z,3.77
2017-08-24T13:15:18.596Z,6.00
2017-08-24T13:17:48.944Z,5.50
2017-08-24T13:20:19.658Z,6.53
2017-08-24T13:22:57.760Z,2.10
2017-08-24T13:25:27.977Z,6.20
2017-08-24T13:28:00.866Z,3.83
2017-08-24T13:30:29.345Z,6.03
2017-08-24T13:33:02.213Z,4.00
2017-08-24T13:35:34.844Z,3.23
2017-08-24T13:38:05.280Z,4.43
2017-08-24T13:40:34.789Z,5.07
2017-08-24T13:43:05.372Z,7.90
2017-08-24T13:45:50.040Z,4.67
2017-08-24T13:48:19.444Z,7.80
2017-08-24T13:50:50.151Z,3.27
2017-08-24T13:53:20.785Z,3.73
2017-08-24T13:55:49.291Z,12.57
2017-08-24T13:58:22.564Z,6.90
2017-08-24T14:00:56.804Z,13.07
2017-08-24T14:03:27.413Z,8.10
2017-08-24T14:05:58.062Z,4.50
2017-08-24T14:08:28.784Z,7.93
2017-08-24T14:10:57.206Z,10.33
2017-08-24T14:13:25.597Z,2.20
2017-08-24T14:15:54.113Z,6.20
2017-08-24T14:18:24.748Z,5.47
2017-08-24T14:20:53.138Z,6.27
2017-08-24T14:23:21.597Z,2.87
2017-08-24T14:25:54.579Z,3.80
2017-08-24T14:28:23.241Z,3.67
2017-08-24T14:30:51.756Z,1.70
2017-08-24T14:33:22.406Z,2.90
2017-08-24T14:35:51.105Z,9.90
2017-08-24T14:38:22.616Z,4.80
2017-08-24T14:40:52.803Z,5.03
2017-08-24T14:43:21.324Z,4.77
2017-08-24T14:45:49.807Z,4.90
2017-08-24T14:48:18.445Z,3.10
2017-08-24T14:50:46.948Z,1.87
2017-08-24T14:53:15.654Z,2.30
2017-08-24T14:55:44.322Z,3.20
2017-08-24T14:58:16.986Z,4.40
2017-08-24T15:00:47.046Z,6.23
2017-08-24T15:03:15.709Z,4.20
2017-08-24T15:05:46.266Z,5.13
2017-08-24T15:08:15.816Z,2.83
2017-08-24T15:10:45.285Z,3.40
2017-08-24T15:13:15.838Z,2.97
2017-08-24T15:15:51.697Z,4.57
2017-08-24T15:18:23.613Z,3.80
2017-08-24T15:20:52.400Z,5.13
2017-08-24T15:23:22.925Z,7.17
2017-08-24T15:25:51.368Z,4.43
2017-08-24T15:28:19.944Z,4.30
2017-08-24T15:30:52.534Z,3.90
2017-08-24T15:33:22.937Z,3.40
2017-08-24T15:35:51.578Z,6.67
2017-08-24T15:38:20.088Z,2.50
2017-08-24T15:40:50.285Z,3.63
2017-08-24T15:43:19.075Z,7.30
2017-08-24T15:45:49.596Z,5.70
2017-08-24T15:48:18.235Z,2.13
2017-08-24T15:50:46.820Z,8.77
2017-08-24T15:53:16.464Z,3.40
2017-08-24T15:55:45.008Z,5.20
2017-08-24T15:58:13.593Z,7.03
2017-08-24T16:00:42.279Z,2.70
2017-08-24T16:03:11.058Z,6.10
2017-08-24T16:05:39.748Z,4.30
2017-08-24T16:08:08.372Z,1.80
2017-08-24T16:10:36.928Z,6.10
2017-08-24T16:13:06.457Z,9.27
2017-08-24T16:15:35.949Z,5.37
2017-08-24T16:18:04.561Z,3.73
2017-08-24T16:20:34.031Z,4.90
2017-08-24T16:23:05.716Z,3.77
2017-08-24T16:25:34.251Z,8.43
2017-08-24T16:28:10.407Z,5.30
2017-08-24T16:30:43.081Z,5.20
2017-08-24T16:33:13.692Z,5.10
2017-08-24T16:35:42.138Z,2.17
2017-08-24T16:38:16.715Z,5.27
2017-08-24T16:40:45.304Z,2.70
2017-08-24T16:43:16.970Z,9.30
2017-08-24T16:45:52.906Z,7.33
2017-08-24T16:48:24.886Z,3.13
2017-08-24T16:50:55.253Z,4.33
2017-08-24T16:53:31.335Z,4.93
2017-08-24T16:56:02.818Z,1.90
2017-08-24T16:58:34.954Z,3.43
2017-08-24T17:01:04.309Z,5.90
2017-08-24T17:03:39.218Z,2.87
2017-08-24T17:06:07.674Z,3.50
2017-08-24T17:08:36.117Z,11.27
2017-08-24T17:11:06.592Z,3.40
2017-08-24T17:13:37.635Z,4.77
2017-08-24T17:16:06.051Z,3.23
2017-08-24T17:18:37.477Z,3.90
2017-08-24T17:21:05.956Z,13.43
2017-08-24T17:23:36.766Z,5.80
2017-08-24T17:26:05.172Z,3.43
2017-08-24T17:28:34.598Z,9.37
2017-08-24T17:31:03.042Z,9.40
2017-08-24T17:33:35.581Z,1.83
2017-08-24T17:36:06.009Z,11.33
2017-08-24T17:38:38.553Z,5.37
2017-08-24T17:41:06.996Z,5.67
2017-08-24T17:43:45.923Z,5.10
2017-08-24T17:46:16.513Z,6.33
2017-08-24T17:48:44.946Z,6.73
2017-08-24T17:51:14.283Z,6.33
2017-08-24T17:53:48.064Z,6.93
2017-08-24T17:56:18.679Z,8.97
2017-08-24T17:58:51.769Z,6.00
2017-08-24T18:01:20.248Z,10.23
2017-08-24T18:03:49.656Z,3.80
2017-08-24T18:06:21.660Z,7.43
2017-08-24T18:08:51.113Z,12.90
2017-08-24T18:11:21.393Z,6.00
2017-08-24T18:13:49.883Z,6.70
2017-08-24T18:16:19.649Z,6.53
2017-08-24T18:18:48.179Z,9.00
2017-08-24T18:21:16.805Z,7.57
2017-08-24T18:23:51.818Z,5.23
2017-08-24T18:26:20.273Z,6.83
2017-08-24T18:28:48.733Z,6.80
2017-08-24T18:31:21.523Z,8.77
2017-08-24T18:33:51.320Z,9.97
2017-08-24T18:36:21.329Z,6.90
2017-08-24T18:38:49.811Z,8.87
2017-08-24T18:41:22.393Z,5.77
2017-08-24T18:43:52.751Z,13.30
2017-08-24T18:46:21.203Z,10.03
2017-08-24T18:48:54.323Z,9.20
2017-08-24T18:51:24.892Z,7.20
2017-08-24T18:53:53.464Z,10.00
2017-08-24T18:56:22.029Z,8.17
2017-08-24T18:58:50.469Z,12.37
2017-08-24T19:01:21.830Z,7.30
2017-08-24T19:03:52.341Z,13.57
2017-08-24T19:06:22.811Z,7.90
2017-08-24T19:08:51.295Z,5.90
2017-08-24T19:11:24.125Z,4.77
2017-08-24T19:13:52.605Z,9.03
2017-08-24T19:16:25.403Z,8.10
2017-08-24T19:18:55.399Z,7.57
2017-08-24T19:21:23.784Z,7.27
2017-08-24T19:23:52.309Z,5.23
2017-08-24T19:26:23.027Z,6.63
2017-08-24T19:28:53.721Z,5.70
2017-08-24T19:31:22.125Z,7.40
2017-08-24T19:33:50.628Z,7.03
2017-08-24T19:36:21.243Z,7.63
2017-08-24T19:39:00.576Z,12.93
2017-08-24T19:41:33.308Z,9.40
2017-08-24T19:44:04.074Z,7.20
2017-08-24T19:46:32.448Z,8.90
2017-08-24T19:49:00.884Z,11.07
2017-08-24T19:51:31.457Z,11.13
2017-08-24T19:54:02.340Z,8.47
2017-08-24T19:56:30.819Z,9.10
2017-08-24T19:58:59.262Z,6.60
2017-08-24T20:01:32.196Z,8.17
2017-08-24T20:04:09.085Z,17.47
2017-08-24T20:06:41.686Z,10.87
2017-08-24T20:09:10.132Z,14.27
2017-08-24T20:11:40.538Z,10.13
2017-08-24T20:14:08.945Z,11.27
2017-08-24T20:16:37.375Z,6.03
2017-08-24T20:19:05.753Z,6.90
2017-08-24T20:21:34.216Z,13.70
2017-08-24T20:24:07.128Z,7.97
2017-08-24T20:26:37.749Z,13.63
2017-08-24T20:29:12.654Z,12.03
2017-08-24T20:31:49.727Z,9.60
2017-08-24T20:34:18.196Z,10.00
2017-08-24T20:36:46.594Z,8.00
2017-08-24T20:39:15.058Z,13.00
2017-08-24T20:41:43.493Z,11.97
2017-08-24T20:44:16.073Z,14.57
2017-08-24T20:46:46.677Z,8.10
2017-08-24T20:49:17.245Z,19.40
2017-08-24T20:51:51.629Z,10.77
2017-08-24T20:54:24.200Z,14.97
2017-08-24T20:56:59.164Z,11.23
2017-08-24T20:59:29.774Z,9.80
2017-08-24T21:02:00.443Z,18.93
2017-08-24T21:04:28.902Z,13.63
2017-08-24T21:06:57.533Z,13.53
2017-08-24T21:09:30.145Z,12.73
2017-08-24T21:11:58.633Z,9.43
2017-08-24T21:14:31.499Z,8.33
2017-08-24T21:16:59.988Z,19.10
2017-08-24T21:19:28.467Z,12.53
2017-08-24T21:21:59.146Z,18.77
2017-08-24T21:24:27.610Z,15.93
2017-08-24T21:26:58.313Z,9.00
2017-08-24T21:29:28.893Z,12.33
2017-08-24T21:32:01.368Z,8.03
2017-08-24T21:34:36.332Z,11.70
2017-08-24T21:37:07.096Z,20.73
2017-08-24T21:39:39.683Z,11.93
2017-08-24T21:42:10.289Z,14.53
2017-08-24T21:44:38.717Z,12.90
2017-08-24T21:47:11.320Z,12.20
2017-08-24T21:49:46.282Z,15.13
2017-08-24T21:52:16.716Z,14.10
2017-08-24T21:54:45.183Z,10.87
2017-08-24T21:57:13.580Z,12.53
2017-08-24T21:59:41.984Z,12.67
2017-08-24T22:02:10.448Z,11.90
2017-08-24T22:04:40.843Z,11.33
2017-08-24T22:07:09.265Z,11.57
2017-08-24T22:09:37.654Z,15.50
2017-08-24T22:12:06.114Z,14.10
2017-08-24T22:14:34.673Z,18.63
2017-08-24T22:17:03.172Z,19.03
2017-08-24T22:19:31.538Z,15.47
2017-08-24T22:22:00.035Z,10.87
2017-08-24T22:24:28.484Z,8.53
2017-08-24T22:26:56.873Z,7.30
2017-08-24T22:29:25.252Z,14.87
2017-08-24T22:31:53.716Z,5.33
2017-08-24T22:34:22.401Z,11.80
2017-08-24T22:36:50.883Z,12.70
2017-08-24T22:39:19.365Z,15.33
2017-08-24T22:41:47.820Z,14.03
2017-08-24T22:44:16.560Z,9.47
2017-08-24T22:46:44.977Z,11.17
2017-08-24T22:49:13.344Z,8.77
2017-08-24T22:51:41.800Z,14.43
2017-08-24T22:54:10.201Z,9.47
2017-08-24T22:56:38.636Z,14.90
2017-08-24T22:59:07.017Z,18.70
2017-08-24T23:01:35.504Z,12.17
2017-08-24T23:04:03.969Z,9.10
2017-08-24T23:06:32.454Z,11.43
2017-08-24T23:09:01.539Z,16.87
2017-08-24T23:11:30.032Z,13.50
2017-08-24T23:13:58.390Z,9.87
2017-08-24T23:16:27.832Z,12.33
2017-08-24T23:18:56.198Z,13.10
2017-08-24T23:21:24.600Z,14.50
2017-08-24T23:23:52.959Z,14.00
2017-08-24T23:26:21.415Z,18.40
2017-08-24T23:28:49.804Z,11.80
2017-08-24T23:31:18.184Z,10.60
2017-08-24T23:33:46.558Z,7.47
2017-08-24T23:36:15.148Z,8.80
2017-08-24T23:38:43.615Z,11.87
2017-08-24T23:41:12.018Z,14.50
2017-08-24T23:43:40.426Z,13.10
2017-08-24T23:46:09.364Z,8.80
2017-08-24T23:48:37.857Z,9.23
2017-08-24T23:51:06.327Z,13.33
2017-08-24T23:53:34.729Z,11.97
2017-08-24T23:56:03.198Z,9.63
2017-08-24T23:58:31.592Z,9.90
